sensor_id;sensor_type;location;lat;lon;timestamp;P1;durP1;ratioP1;P2;durP2;ratioP2
35877;SDS011;21982;49.804;24.072;2023-09-12T00:02:06;53.90;;;29.13;;
35877;SDS011;21982;49.804;24.072;2023-09-12T00:04:31;57.67;;;29.63;;
35877;SDS011;21982;49.804;24.072;2023-09-12T00:06:57;54.05;;;27.83;;
35877;SDS011;21982;49.804;24.072;2023-09-12T00:09:22;53.70;;;28.90;;
35877;SDS011;21982;49.804;24.072;2023-09-12T00:11:47;50.58;;;28.80;;
35877;SDS011;21982;49.804;24.072;2023-09-12T00:14:16;51.50;;;27.00;;
35877;SDS011;21982;49.804;24.072;2023-09-12T00:16:42;52.50;;;27.77;;
35877;SDS011;21982;49.804;24.072;2023-09-12T00:19:08;51.42;;;28.30;;
35877;SDS011;21982;49.804;24.072;2023-09-12T00:21:36;47.78;;;26.77;;
35877;SDS011;21982;49.804;24.072;2023-09-12T00:24:01;53.08;;;27.20;;
35877;SDS011;21982;49.804;24.072;2023-09-12T00:26:27;49.08;;;28.25;;
35877;SDS011;21982;49.804;24.072;2023-09-12T00:28:55;51.97;;;28.80;;
35877;SDS011;21982;49.804;24.072;2023-09-12T00:31:21;47.38;;;27.25;;
35877;SDS011;21982;49.804;24.072;2023-09-12T00:33:46;49.83;;;28.48;;
35877;SDS011;21982;49.804;24.072;2023-09-12T00:36:12;54.13;;;29.35;;
35877;SDS011;21982;49.804;24.072;2023-09-12T00:38:37;49.65;;;27.05;;
35877;SDS011;21982;49.804;24.072;2023-09-12T00:41:02;53.75;;;28.63;;
35877;SDS011;21982;49.804;24.072;2023-09-12T00:43:28;53.78;;;28.60;;
35877;SDS011;21982;49.804;24.072;2023-09-12T00:45:53;45.67;;;25.42;;
35877;SDS011;21982;49.804;24.072;2023-09-12T00:48:19;51.35;;;27.80;;
35877;SDS011;21982;49.804;24.072;2023-09-12T00:50:47;48.10;;;26.73;;
35877;SDS011;21982;49.804;24.072;2023-09-12T00:53:14;53.60;;;28.60;;
35877;SDS011;21982;49.804;24.072;2023-09-12T00:55:44;49.10;;;29.77;;
35877;SDS011;21982;49.804;24.072;2023-09-12T00:58:14;47.55;;;27.48;;
35877;SDS011;21982;49.804;24.072;2023-09-12T01:00:40;49.53;;;27.80;;
35877;SDS011;21982;49.804;24.072;2023-09-12T01:03:06;55.95;;;30.50;;
35877;SDS011;21982;49.804;24.072;2023-09-12T01:05:32;55.65;;;29.45;;
35877;SDS011;21982;49.804;24.072;2023-09-12T01:07:59;49.83;;;27.13;;
35877;SDS011;21982;49.804;24.072;2023-09-12T01:10:25;53.00;;;27.63;;
35877;SDS011;21982;49.804;24.072;2023-09-12T01:12:50;54.53;;;29.98;;
35877;SDS011;21982;49.804;24.072;2023-09-12T01:15:17;52.85;;;26.90;;
35877;SDS011;21982;49.804;24.072;2023-09-12T01:17:43;60.63;;;30.00;;
35877;SDS011;21982;49.804;24.072;2023-09-12T01:20:17;51.05;;;28.00;;
35877;SDS011;21982;49.804;24.072;2023-09-12T01:23:00;51.00;;;28.23;;
35877;SDS011;21982;49.804;24.072;2023-09-12T01:25:50;50.25;;;28.77;;
35877;SDS011;21982;49.804;24.072;2023-09-12T01:28:29;54.30;;;27.85;;
35877;SDS011;21982;49.804;24.072;2023-09-12T01:30:56;54.25;;;30.38;;
35877;SDS011;21982;49.804;24.072;2023-09-12T01:33:25;52.78;;;28.52;;
35877;SDS011;21982;49.804;24.072;2023-09-12T01:35:51;51.13;;;28.10;;
35877;SDS011;21982;49.804;24.072;2023-09-12T01:38:16;64.22;;;28.95;;
35877;SDS011;21982;49.804;24.072;2023-09-12T01:40:49;52.75;;;29.23;;
35877;SDS011;21982;49.804;24.072;2023-09-12T01:43:20;46.92;;;27.85;;
35877;SDS011;21982;49.804;24.072;2023-09-12T01:45:47;48.28;;;27.45;;
35877;SDS011;21982;49.804;24.072;2023-09-12T01:48:17;50.00;;;28.10;;
35877;SDS011;21982;49.804;24.072;2023-09-12T01:50:45;54.72;;;28.92;;
35877;SDS011;21982;49.804;24.072;2023-09-12T01:53:11;45.08;;;25.95;;
35877;SDS011;21982;49.804;24.072;2023-09-12T01:55:36;49.50;;;27.63;;
35877;SDS011;21982;49.804;24.072;2023-09-12T01:58:02;48.60;;;28.63;;
35877;SDS011;21982;49.804;24.072;2023-09-12T02:00:28;53.45;;;30.73;;
35877;SDS011;21982;49.804;24.072;2023-09-12T02:02:54;50.47;;;28.25;;
35877;SDS011;21982;49.804;24.072;2023-09-12T02:05:20;48.00;;;27.73;;
35877;SDS011;21982;49.804;24.072;2023-09-12T02:07:47;57.33;;;29.33;;
35877;SDS011;21982;49.804;24.072;2023-09-12T02:10:13;51.63;;;28.60;;
35877;SDS011;21982;49.804;24.072;2023-09-12T02:12:39;55.63;;;28.67;;
35877;SDS011;21982;49.804;24.072;2023-09-12T02:15:05;53.90;;;27.98;;
35877;SDS011;21982;49.804;24.072;2023-09-12T02:17:33;45.33;;;28.48;;
35877;SDS011;21982;49.804;24.072;2023-09-12T02:19:59;47.38;;;28.27;;
35877;SDS011;21982;49.804;24.072;2023-09-12T02:22:24;48.13;;;28.08;;
35877;SDS011;21982;49.804;24.072;2023-09-12T02:24:50;46.50;;;27.15;;
35877;SDS011;21982;49.804;24.072;2023-09-12T02:27:15;50.40;;;27.75;;
35877;SDS011;21982;49.804;24.072;2023-09-12T02:29:41;50.70;;;29.50;;
35877;SDS011;21982;49.804;24.072;2023-09-12T02:32:07;52.08;;;29.10;;
35877;SDS011;21982;49.804;24.072;2023-09-12T02:34:33;48.13;;;28.40;;
35877;SDS011;21982;49.804;24.072;2023-09-12T02:36:59;45.95;;;28.75;;
35877;SDS011;21982;49.804;24.072;2023-09-12T02:39:24;48.75;;;26.67;;
35877;SDS011;21982;49.804;24.072;2023-09-12T02:41:49;51.33;;;28.42;;
35877;SDS011;21982;49.804;24.072;2023-09-12T02:44:15;50.17;;;27.48;;
35877;SDS011;21982;49.804;24.072;2023-09-12T02:46:41;48.13;;;28.35;;
35877;SDS011;21982;49.804;24.072;2023-09-12T02:49:06;59.90;;;28.60;;
35877;SDS011;21982;49.804;24.072;2023-09-12T02:51:32;52.22;;;27.48;;
35877;SDS011;21982;49.804;24.072;2023-09-12T02:53:57;48.95;;;25.92;;
35877;SDS011;21982;49.804;24.072;2023-09-12T02:56:22;50.03;;;27.20;;
35877;SDS011;21982;49.804;24.072;2023-09-12T02:58:48;45.38;;;26.65;;
35877;SDS011;21982;49.804;24.072;2023-09-12T03:01:15;44.90;;;27.20;;
35877;SDS011;21982;49.804;24.072;2023-09-12T03:03:47;44.83;;;25.83;;
35877;SDS011;21982;49.804;24.072;2023-09-12T03:06:13;45.88;;;24.88;;
35877;SDS011;21982;49.804;24.072;2023-09-12T03:08:39;43.95;;;28.25;;
35877;SDS011;21982;49.804;24.072;2023-09-12T03:11:05;42.33;;;25.70;;
35877;SDS011;21982;49.804;24.072;2023-09-12T03:13:32;42.00;;;26.05;;
35877;SDS011;21982;49.804;24.072;2023-09-12T03:15:57;47.30;;;25.50;;
35877;SDS011;21982;49.804;24.072;2023-09-12T03:18:23;50.58;;;28.13;;
35877;SDS011;21982;49.804;24.072;2023-09-12T03:20:48;45.33;;;26.00;;
35877;SDS011;21982;49.804;24.072;2023-09-12T03:23:13;42.28;;;24.63;;
35877;SDS011;21982;49.804;24.072;2023-09-12T03:25:39;43.80;;;25.30;;
35877;SDS011;21982;49.804;24.072;2023-09-12T03:28:05;50.05;;;26.65;;
35877;SDS011;21982;49.804;24.072;2023-09-12T03:30:34;44.42;;;26.15;;
35877;SDS011;21982;49.804;24.072;2023-09-12T03:33:01;41.05;;;22.38;;
35877;SDS011;21982;49.804;24.072;2023-09-12T03:35:27;41.97;;;23.48;;
35877;SDS011;21982;49.804;24.072;2023-09-12T03:37:54;45.55;;;25.88;;
35877;SDS011;21982;49.804;24.072;2023-09-12T03:40:19;46.03;;;25.00;;
35877;SDS011;21982;49.804;24.072;2023-09-12T03:42:44;41.58;;;22.60;;
35877;SDS011;21982;49.804;24.072;2023-09-12T03:45:10;48.42;;;24.98;;
35877;SDS011;21982;49.804;24.072;2023-09-12T03:47:36;42.33;;;25.38;;
35877;SDS011;21982;49.804;24.072;2023-09-12T03:50:02;41.30;;;23.02;;
35877;SDS011;21982;49.804;24.072;2023-09-12T03:52:27;45.45;;;24.45;;
35877;SDS011;21982;49.804;24.072;2023-09-12T03:54:53;45.60;;;25.13;;
35877;SDS011;21982;49.804;24.072;2023-09-12T03:57:18;46.03;;;26.85;;
35877;SDS011;21982;49.804;24.072;2023-09-12T03:59:44;41.90;;;25.60;;
35877;SDS011;21982;49.804;24.072;2023-09-12T04:02:11;40.53;;;23.85;;
35877;SDS011;21982;49.804;24.072;2023-09-12T04:04:37;43.90;;;25.38;;
35877;SDS011;21982;49.804;24.072;2023-09-12T04:07:03;39.20;;;23.65;;
35877;SDS011;21982;49.804;24.072;2023-09-12T04:09:28;44.70;;;25.27;;
35877;SDS011;21982;49.804;24.072;2023-09-12T04:11:54;48.63;;;23.83;;
35877;SDS011;21982;49.804;24.072;2023-09-12T04:14:20;39.47;;;23.63;;
35877;SDS011;21982;49.804;24.072;2023-09-12T04:16:46;44.30;;;24.65;;
35877;SDS011;21982;49.804;24.072;2023-09-12T04:19:11;41.15;;;23.83;;
35877;SDS011;21982;49.804;24.072;2023-09-12T04:21:37;46.85;;;25.08;;
35877;SDS011;21982;49.804;24.072;2023-09-12T04:24:02;45.35;;;24.83;;
35877;SDS011;21982;49.804;24.072;2023-09-12T04:26:27;39.40;;;23.42;;
35877;SDS011;21982;49.804;24.072;2023-09-12T04:28:53;43.05;;;23.80;;
35877;SDS011;21982;49.804;24.072;2023-09-12T04:31:18;41.97;;;25.05;;
35877;SDS011;21982;49.804;24.072;2023-09-12T04:33:44;41.45;;;22.92;;
35877;SDS011;21982;49.804;24.072;2023-09-12T04:36:09;44.30;;;23.60;;
35877;SDS011;21982;49.804;24.072;2023-09-12T04:38:35;44.03;;;22.25;;
35877;SDS011;21982;49.804;24.072;2023-09-12T04:41:02;45.90;;;23.20;;
35877;SDS011;21982;49.804;24.072;2023-09-12T04:43:30;45.83;;;23.10;;
35877;SDS011;21982;49.804;24.072;2023-09-12T04:45:56;47.22;;;23.92;;
35877;SDS011;21982;49.804;24.072;2023-09-12T04:48:21;34.60;;;22.77;;
35877;SDS011;21982;49.804;24.072;2023-09-12T04:50:46;39.13;;;22.98;;
35877;SDS011;21982;49.804;24.072;2023-09-12T04:53:12;36.83;;;21.05;;
35877;SDS011;21982;49.804;24.072;2023-09-12T04:55:38;40.33;;;22.50;;
35877;SDS011;21982;49.804;24.072;2023-09-12T04:58:05;41.45;;;20.80;;
35877;SDS011;21982;49.804;24.072;2023-09-12T05:00:31;42.13;;;22.08;;
35877;SDS011;21982;49.804;24.072;2023-09-12T05:02:57;36.63;;;21.15;;
35877;SDS011;21982;49.804;24.072;2023-09-12T05:05:23;36.03;;;21.08;;
35877;SDS011;21982;49.804;24.072;2023-09-12T05:07:48;42.33;;;20.15;;
35877;SDS011;21982;49.804;24.072;2023-09-12T05:10:13;37.25;;;20.67;;
35877;SDS011;21982;49.804;24.072;2023-09-12T05:12:39;38.85;;;21.42;;
35877;SDS011;21982;49.804;24.072;2023-09-12T05:15:04;35.55;;;19.45;;
35877;SDS011;21982;49.804;24.072;2023-09-12T05:17:30;37.95;;;20.67;;
35877;SDS011;21982;49.804;24.072;2023-09-12T05:19:55;39.88;;;20.27;;
35877;SDS011;21982;49.804;24.072;2023-09-12T05:22:21;37.25;;;21.65;;
35877;SDS011;21982;49.804;24.072;2023-09-12T05:24:46;41.90;;;20.45;;
35877;SDS011;21982;49.804;24.072;2023-09-12T05:27:12;37.85;;;22.05;;
35877;SDS011;21982;49.804;24.072;2023-09-12T05:29:38;36.25;;;21.75;;
35877;SDS011;21982;49.804;24.072;2023-09-12T05:32:04;42.08;;;24.40;;
35877;SDS011;21982;49.804;24.072;2023-09-12T05:34:29;42.05;;;25.77;;
35877;SDS011;21982;49.804;24.072;2023-09-12T05:36:56;43.50;;;26.38;;
35877;SDS011;21982;49.804;24.072;2023-09-12T05:39:22;37.47;;;22.15;;
35877;SDS011;21982;49.804;24.072;2023-09-12T05:41:48;45.40;;;26.67;;
35877;SDS011;21982;49.804;24.072;2023-09-12T05:44:15;46.58;;;25.10;;
35877;SDS011;21982;49.804;24.072;2023-09-12T05:46:44;44.92;;;23.08;;
35877;SDS011;21982;49.804;24.072;2023-09-12T05:49:13;40.42;;;21.55;;
35877;SDS011;21982;49.804;24.072;2023-09-12T05:51:41;38.58;;;19.15;;
35877;SDS011;21982;49.804;24.072;2023-09-12T05:54:08;37.60;;;20.67;;
35877;SDS011;21982;49.804;24.072;2023-09-12T05:56:34;33.92;;;19.02;;
35877;SDS011;21982;49.804;24.072;2023-09-12T05:59:00;37.35;;;21.02;;
35877;SDS011;21982;49.804;24.072;2023-09-12T06:01:25;33.90;;;20.48;;
35877;SDS011;21982;49.804;24.072;2023-09-12T06:03:50;41.30;;;21.52;;
35877;SDS011;21982;49.804;24.072;2023-09-12T06:06:16;44.20;;;23.35;;
35877;SDS011;21982;49.804;24.072;2023-09-12T06:08:41;40.47;;;19.73;;
35877;SDS011;21982;49.804;24.072;2023-09-12T06:11:07;31.33;;;17.40;;
35877;SDS011;21982;49.804;24.072;2023-09-12T06:13:32;33.35;;;17.15;;
35877;SDS011;21982;49.804;24.072;2023-09-12T06:15:58;38.00;;;17.00;;
35877;SDS011;21982;49.804;24.072;2023-09-12T06:18:24;30.70;;;16.10;;
35877;SDS011;21982;49.804;24.072;2023-09-12T06:20:51;27.83;;;16.40;;
35877;SDS011;21982;49.804;24.072;2023-09-12T06:23:17;25.20;;;16.30;;
35877;SDS011;21982;49.804;24.072;2023-09-12T06:25:42;27.85;;;14.88;;
35877;SDS011;21982;49.804;24.072;2023-09-12T06:28:09;27.33;;;15.15;;
35877;SDS011;21982;49.804;24.072;2023-09-12T06:30:35;26.15;;;15.52;;
35877;SDS011;21982;49.804;24.072;2023-09-12T06:33:00;27.38;;;14.68;;
35877;SDS011;21982;49.804;24.072;2023-09-12T06:35:26;37.13;;;15.32;;
35877;SDS011;21982;49.804;24.072;2023-09-12T06:37:51;28.35;;;15.13;;
35877;SDS011;21982;49.804;24.072;2023-09-12T06:40:16;32.35;;;14.05;;
35877;SDS011;21982;49.804;24.072;2023-09-12T06:42:42;21.85;;;13.43;;
35877;SDS011;21982;49.804;24.072;2023-09-12T06:45:08;29.33;;;14.13;;
35877;SDS011;21982;49.804;24.072;2023-09-12T06:47:34;28.35;;;14.10;;
35877;SDS011;21982;49.804;24.072;2023-09-12T06:49:59;30.42;;;14.15;;
35877;SDS011;21982;49.804;24.072;2023-09-12T06:52:25;27.52;;;14.13;;
35877;SDS011;21982;49.804;24.072;2023-09-12T06:54:50;20.77;;;12.27;;
35877;SDS011;21982;49.804;24.072;2023-09-12T06:57:16;21.45;;;13.77;;
35877;SDS011;21982;49.804;24.072;2023-09-12T06:59:41;23.08;;;13.05;;
35877;SDS011;21982;49.804;24.072;2023-09-12T07:02:06;19.40;;;12.73;;
35877;SDS011;21982;49.804;24.072;2023-09-12T07:04:32;25.45;;;12.45;;
35877;SDS011;21982;49.804;24.072;2023-09-12T07:06:58;22.58;;;11.55;;
35877;SDS011;21982;49.804;24.072;2023-09-12T07:09:23;21.25;;;12.23;;
35877;SDS011;21982;49.804;24.072;2023-09-12T07:11:48;19.83;;;10.23;;
35877;SDS011;21982;49.804;24.072;2023-09-12T07:14:14;23.65;;;12.20;;
35877;SDS011;21982;49.804;24.072;2023-09-12T07:16:40;29.58;;;12.50;;
35877;SDS011;21982;49.804;24.072;2023-09-12T07:19:05;18.60;;;11.52;;
35877;SDS011;21982;49.804;24.072;2023-09-12T07:21:31;20.98;;;11.57;;
35877;SDS011;21982;49.804;24.072;2023-09-12T07:23:57;23.33;;;11.30;;
35877;SDS011;21982;49.804;24.072;2023-09-12T07:26:22;18.63;;;11.27;;
35877;SDS011;21982;49.804;24.072;2023-09-12T07:28:48;20.20;;;12.32;;
35877;SDS011;21982;49.804;24.072;2023-09-12T07:31:14;16.02;;;10.38;;
35877;SDS011;21982;49.804;24.072;2023-09-12T07:33:39;19.80;;;11.00;;
35877;SDS011;21982;49.804;24.072;2023-09-12T07:36:06;16.55;;;10.15;;
35877;SDS011;21982;49.804;24.072;2023-09-12T07:38:32;16.77;;;10.25;;
35877;SDS011;21982;49.804;24.072;2023-09-12T07:41:00;19.95;;;10.45;;
35877;SDS011;21982;49.804;24.072;2023-09-12T07:43:25;16.75;;;9.13;;
35877;SDS011;21982;49.804;24.072;2023-09-12T07:45:57;16.35;;;10.40;;
35877;SDS011;21982;49.804;24.072;2023-09-12T07:50:50;32.95;;;11.90;;
35877;SDS011;21982;49.804;24.072;2023-09-12T07:53:16;18.70;;;9.38;;
35877;SDS011;21982;49.804;24.072;2023-09-12T07:55:41;15.75;;;8.48;;
35877;SDS011;21982;49.804;24.072;2023-09-12T07:58:17;16.77;;;9.43;;
35877;SDS011;21982;49.804;24.072;2023-09-12T08:00:46;16.50;;;9.48;;
35877;SDS011;21982;49.804;24.072;2023-09-12T08:03:12;15.68;;;8.52;;
35877;SDS011;21982;49.804;24.072;2023-09-12T08:05:39;16.90;;;9.88;;
35877;SDS011;21982;49.804;24.072;2023-09-12T08:08:05;16.00;;;9.15;;
35877;SDS011;21982;49.804;24.072;2023-09-12T08:10:30;15.65;;;9.35;;
35877;SDS011;21982;49.804;24.072;2023-09-12T08:12:56;14.93;;;8.60;;
35877;SDS011;21982;49.804;24.072;2023-09-12T08:15:21;15.45;;;9.70;;
35877;SDS011;21982;49.804;24.072;2023-09-12T08:17:46;16.27;;;9.00;;
35877;SDS011;21982;49.804;24.072;2023-09-12T08:20:16;16.30;;;9.63;;
35877;SDS011;21982;49.804;24.072;2023-09-12T08:22:43;20.38;;;9.73;;
35877;SDS011;21982;49.804;24.072;2023-09-12T08:25:08;17.23;;;9.90;;
35877;SDS011;21982;49.804;24.072;2023-09-12T08:27:35;23.40;;;10.00;;
35877;SDS011;21982;49.804;24.072;2023-09-12T08:30:00;16.17;;;9.93;;
35877;SDS011;21982;49.804;24.072;2023-09-12T08:32:29;22.05;;;10.15;;
35877;SDS011;21982;49.804;24.072;2023-09-12T08:34:56;19.05;;;10.52;;
35877;SDS011;21982;49.804;24.072;2023-09-12T08:37:21;16.85;;;8.98;;
35877;SDS011;21982;49.804;24.072;2023-09-12T08:39:47;16.75;;;9.80;;
35877;SDS011;21982;49.804;24.072;2023-09-12T08:42:13;20.05;;;10.07;;
35877;SDS011;21982;49.804;24.072;2023-09-12T08:44:41;20.23;;;9.40;;
35877;SDS011;21982;49.804;24.072;2023-09-12T08:47:11;15.32;;;7.53;;
35877;SDS011;21982;49.804;24.072;2023-09-12T08:49:39;15.10;;;8.18;;
35877;SDS011;21982;49.804;24.072;2023-09-12T08:52:05;15.43;;;7.57;;
35877;SDS011;21982;49.804;24.072;2023-09-12T08:54:31;14.77;;;7.65;;
35877;SDS011;21982;49.804;24.072;2023-09-12T08:56:57;17.27;;;8.20;;
35877;SDS011;21982;49.804;24.072;2023-09-12T08:59:23;14.55;;;6.90;;
35877;SDS011;21982;49.804;24.072;2023-09-12T09:01:49;15.23;;;6.72;;
35877;SDS011;21982;49.804;24.072;2023-09-12T09:04:17;11.07;;;6.55;;
35877;SDS011;21982;49.804;24.072;2023-09-12T09:06:45;12.18;;;5.80;;
35877;SDS011;21982;49.804;24.072;2023-09-12T09:09:11;10.90;;;5.63;;
35877;SDS011;21982;49.804;24.072;2023-09-12T09:11:38;13.27;;;6.45;;
35877;SDS011;21982;49.804;24.072;2023-09-12T09:14:03;13.82;;;5.65;;
35877;SDS011;21982;49.804;24.072;2023-09-12T09:16:29;8.80;;;5.95;;
35877;SDS011;21982;49.804;24.072;2023-09-12T09:19:02;14.10;;;6.57;;
35877;SDS011;21982;49.804;24.072;2023-09-12T09:21:35;13.57;;;7.75;;
35877;SDS011;21982;49.804;24.072;2023-09-12T09:24:13;17.33;;;6.93;;
35877;SDS011;21982;49.804;24.072;2023-09-12T09:31:42;15.43;;;6.60;;
35877;SDS011;21982;49.804;24.072;2023-09-12T09:34:16;15.20;;;6.50;;
35877;SDS011;21982;49.804;24.072;2023-09-12T09:36:43;11.15;;;6.43;;
35877;SDS011;21982;49.804;24.072;2023-09-12T09:39:09;13.82;;;6.82;;
35877;SDS011;21982;49.804;24.072;2023-09-12T09:41:36;11.90;;;6.63;;
35877;SDS011;21982;49.804;24.072;2023-09-12T09:44:04;14.93;;;6.28;;
35877;SDS011;21982;49.804;24.072;2023-09-12T09:46:31;12.32;;;6.25;;
35877;SDS011;21982;49.804;24.072;2023-09-12T09:48:57;11.45;;;6.22;;
35877;SDS011;21982;49.804;24.072;2023-09-12T09:51:24;12.35;;;6.82;;
35877;SDS011;21982;49.804;24.072;2023-09-12T09:53:51;11.90;;;6.85;;
35877;SDS011;21982;49.804;24.072;2023-09-12T09:56:23;14.80;;;6.60;;
35877;SDS011;21982;49.804;24.072;2023-09-12T09:58:56;11.90;;;6.13;;
35877;SDS011;21982;49.804;24.072;2023-09-12T10:01:23;12.23;;;7.32;;
35877;SDS011;21982;49.804;24.072;2023-09-12T10:03:53;10.07;;;5.88;;
35877;SDS011;21982;49.804;24.072;2023-09-12T10:06:23;11.02;;;5.93;;
35877;SDS011;21982;49.804;24.072;2023-09-12T10:08:52;11.48;;;6.35;;
35877;SDS011;21982;49.804;24.072;2023-09-12T10:11:19;12.20;;;5.93;;
35877;SDS011;21982;49.804;24.072;2023-09-12T10:13:54;10.55;;;6.25;;
35877;SDS011;21982;49.804;24.072;2023-09-12T10:16:23;11.00;;;6.78;;
35877;SDS011;21982;49.804;24.072;2023-09-12T10:18:56;13.60;;;6.63;;
35877;SDS011;21982;49.804;24.072;2023-09-12T10:21:28;11.88;;;6.93;;
35877;SDS011;21982;49.804;24.072;2023-09-12T10:23:57;15.85;;;7.28;;
35877;SDS011;21982;49.804;24.072;2023-09-12T10:26:23;14.32;;;6.72;;
35877;SDS011;21982;49.804;24.072;2023-09-12T10:28:49;13.48;;;7.85;;
35877;SDS011;21982;49.804;24.072;2023-09-12T10:31:16;13.73;;;6.95;;
35877;SDS011;21982;49.804;24.072;2023-09-12T10:33:42;13.02;;;6.00;;
35877;SDS011;21982;49.804;24.072;2023-09-12T10:36:09;12.70;;;7.50;;
35877;SDS011;21982;49.804;24.072;2023-09-12T10:38:46;13.30;;;7.25;;
35877;SDS011;21982;49.804;24.072;2023-09-12T10:41:14;14.30;;;6.53;;
35877;SDS011;21982;49.804;24.072;2023-09-12T10:43:40;13.95;;;6.68;;
35877;SDS011;21982;49.804;24.072;2023-09-12T10:46:07;14.50;;;6.95;;
35877;SDS011;21982;49.804;24.072;2023-09-12T10:48:37;10.73;;;7.32;;
35877;SDS011;21982;49.804;24.072;2023-09-12T10:51:04;11.68;;;7.20;;
35877;SDS011;21982;49.804;24.072;2023-09-12T10:53:32;13.88;;;6.60;;
35877;SDS011;21982;49.804;24.072;2023-09-12T10:56:01;14.65;;;5.90;;
35877;SDS011;21982;49.804;24.072;2023-09-12T11:01:35;16.55;;;7.05;;
35877;SDS011;21982;49.804;24.072;2023-09-12T11:06:48;14.65;;;5.97;;
35877;SDS011;21982;49.804;24.072;2023-09-12T11:11:42;14.60;;;5.70;;
35877;SDS011;21982;49.804;24.072;2023-09-12T11:14:14;14.43;;;5.18;;
35877;SDS011;21982;49.804;24.072;2023-09-12T11:16:40;13.00;;;5.88;;
35877;SDS011;21982;49.804;24.072;2023-09-12T11:19:19;14.68;;;7.05;;
35877;SDS011;21982;49.804;24.072;2023-09-12T11:21:49;10.05;;;6.05;;
35877;SDS011;21982;49.804;24.072;2023-09-12T11:24:16;10.48;;;5.22;;
35877;SDS011;21982;49.804;24.072;2023-09-12T11:26:59;13.50;;;6.15;;
35877;SDS011;21982;49.804;24.072;2023-09-12T11:29:44;13.07;;;8.48;;
35877;SDS011;21982;49.804;24.072;2023-09-12T11:32:10;12.98;;;6.95;;
35877;SDS011;21982;49.804;24.072;2023-09-12T11:34:50;13.52;;;5.75;;
35877;SDS011;21982;49.804;24.072;2023-09-12T11:37:26;11.05;;;6.47;;
35877;SDS011;21982;49.804;24.072;2023-09-12T11:39:53;12.35;;;6.40;;
35877;SDS011;21982;49.804;24.072;2023-09-12T11:42:19;13.52;;;8.23;;
35877;SDS011;21982;49.804;24.072;2023-09-12T11:44:48;11.38;;;7.30;;
35877;SDS011;21982;49.804;24.072;2023-09-12T11:47:13;18.77;;;12.82;;
35877;SDS011;21982;49.804;24.072;2023-09-12T11:49:40;21.77;;;14.38;;
35877;SDS011;21982;49.804;24.072;2023-09-12T11:52:08;11.23;;;7.38;;
35877;SDS011;21982;49.804;24.072;2023-09-12T11:54:35;13.77;;;6.22;;
35877;SDS011;21982;49.804;24.072;2023-09-12T11:57:01;12.75;;;6.07;;
35877;SDS011;21982;49.804;24.072;2023-09-12T11:59:31;10.23;;;6.20;;
35877;SDS011;21982;49.804;24.072;2023-09-12T12:01:56;11.23;;;5.90;;
35877;SDS011;21982;49.804;24.072;2023-09-12T12:04:26;14.57;;;5.85;;
35877;SDS011;21982;49.804;24.072;2023-09-12T12:06:51;13.48;;;6.35;;
35877;SDS011;21982;49.804;24.072;2023-09-12T12:09:17;8.05;;;5.60;;
35877;SDS011;21982;49.804;24.072;2023-09-12T12:11:44;10.85;;;5.40;;
35877;SDS011;21982;49.804;24.072;2023-09-12T12:14:15;11.77;;;5.60;;
35877;SDS011;21982;49.804;24.072;2023-09-12T12:16:42;11.88;;;6.13;;
35877;SDS011;21982;49.804;24.072;2023-09-12T12:19:12;10.15;;;5.40;;
35877;SDS011;21982;49.804;24.072;2023-09-12T12:21:39;8.82;;;6.03;;
35877;SDS011;21982;49.804;24.072;2023-09-12T12:24:07;9.70;;;5.55;;
35877;SDS011;21982;49.804;24.072;2023-09-12T12:26:35;11.20;;;5.88;;
35877;SDS011;21982;49.804;24.072;2023-09-12T12:29:02;12.07;;;5.50;;
35877;SDS011;21982;49.804;24.072;2023-09-12T12:31:30;8.82;;;5.20;;
35877;SDS011;21982;49.804;24.072;2023-09-12T12:33:56;13.13;;;5.20;;
35877;SDS011;21982;49.804;24.072;2023-09-12T12:36:22;19.13;;;6.32;;
35877;SDS011;21982;49.804;24.072;2023-09-12T12:38:49;13.38;;;6.20;;
35877;SDS011;21982;49.804;24.072;2023-09-12T12:41:15;13.13;;;6.30;;
35877;SDS011;21982;49.804;24.072;2023-09-12T12:43:46;19.70;;;6.40;;
35877;SDS011;21982;49.804;24.072;2023-09-12T12:46:16;11.15;;;6.07;;
35877;SDS011;21982;49.804;24.072;2023-09-12T12:48:42;10.68;;;6.50;;
35877;SDS011;21982;49.804;24.072;2023-09-12T12:51:12;17.63;;;8.20;;
35877;SDS011;21982;49.804;24.072;2023-09-12T12:54:03;10.30;;;5.53;;
35877;SDS011;21982;49.804;24.072;2023-09-12T12:56:29;13.48;;;5.63;;
35877;SDS011;21982;49.804;24.072;2023-09-12T12:58:56;13.15;;;5.97;;
35877;SDS011;21982;49.804;24.072;2023-09-12T13:01:24;9.07;;;5.43;;
35877;SDS011;21982;49.804;24.072;2023-09-12T13:03:50;9.15;;;5.35;;
35877;SDS011;21982;49.804;24.072;2023-09-12T13:06:16;14.20;;;5.10;;
35877;SDS011;21982;49.804;24.072;2023-09-12T13:08:43;11.40;;;6.43;;
35877;SDS011;21982;49.804;24.072;2023-09-12T13:11:10;10.80;;;5.72;;
35877;SDS011;21982;49.804;24.072;2023-09-12T13:13:37;12.18;;;5.95;;
35877;SDS011;21982;49.804;24.072;2023-09-12T13:16:06;10.23;;;5.95;;
35877;SDS011;21982;49.804;24.072;2023-09-12T13:21:03;12.98;;;6.30;;
35877;SDS011;21982;49.804;24.072;2023-09-12T13:23:29;32.35;;;18.60;;
35877;SDS011;21982;49.804;24.072;2023-09-12T13:25:55;14.40;;;7.22;;
35877;SDS011;21982;49.804;24.072;2023-09-12T13:28:23;20.13;;;8.93;;
35877;SDS011;21982;49.804;24.072;2023-09-12T13:30:51;22.08;;;13.40;;
35877;SDS011;21982;49.804;24.072;2023-09-12T13:33:17;9.40;;;6.13;;
35877;SDS011;21982;49.804;24.072;2023-09-12T13:35:42;11.75;;;6.13;;
35877;SDS011;21982;49.804;24.072;2023-09-12T13:38:08;9.20;;;5.78;;
35877;SDS011;21982;49.804;24.072;2023-09-12T13:40:37;11.63;;;5.75;;
35877;SDS011;21982;49.804;24.072;2023-09-12T13:43:07;12.25;;;6.10;;
35877;SDS011;21982;49.804;24.072;2023-09-12T13:45:33;9.65;;;5.78;;
35877;SDS011;21982;49.804;24.072;2023-09-12T13:47:59;8.65;;;5.82;;
35877;SDS011;21982;49.804;24.072;2023-09-12T13:50:25;12.15;;;5.63;;
35877;SDS011;21982;49.804;24.072;2023-09-12T13:52:57;10.93;;;6.22;;
35877;SDS011;21982;49.804;24.072;2023-09-12T13:55:31;14.63;;;6.75;;
35877;SDS011;21982;49.804;24.072;2023-09-12T13:57:58;10.45;;;6.55;;
35877;SDS011;21982;49.804;24.072;2023-09-12T14:00:24;15.18;;;7.45;;
35877;SDS011;21982;49.804;24.072;2023-09-12T14:02:49;10.63;;;5.70;;
35877;SDS011;21982;49.804;24.072;2023-09-12T14:05:15;11.32;;;6.57;;
35877;SDS011;21982;49.804;24.072;2023-09-12T14:07:40;11.57;;;6.22;;
35877;SDS011;21982;49.804;24.072;2023-09-12T14:10:08;11.32;;;5.93;;
35877;SDS011;21982;49.804;24.072;2023-09-12T14:12:34;11.48;;;5.55;;
35877;SDS011;21982;49.804;24.072;2023-09-12T14:15:00;15.75;;;7.88;;
35877;SDS011;21982;49.804;24.072;2023-09-12T14:17:26;17.38;;;6.07;;
35877;SDS011;21982;49.804;24.072;2023-09-12T14:19:53;12.18;;;6.78;;
35877;SDS011;21982;49.804;24.072;2023-09-12T14:22:18;10.05;;;6.03;;
35877;SDS011;21982;49.804;24.072;2023-09-12T14:24:44;14.38;;;6.13;;
35877;SDS011;21982;49.804;24.072;2023-09-12T14:27:09;13.73;;;6.88;;
35877;SDS011;21982;49.804;24.072;2023-09-12T14:29:35;13.18;;;6.85;;
35877;SDS011;21982;49.804;24.072;2023-09-12T14:32:00;18.02;;;7.82;;